Apellis — 3FJT2 — position and weather

sailwx.info

Track history (hours):
 
Tides and Currents Weather Stations Pressure Air Temp Water Temp Dewpoint Dewpoint Depression Visibility Wind Speed Wind Dir Waves Ship Positions

Apellis

Last reported at 2015-Aug-19 12:22 UTC. Time now 2015-Aug-29 00:19 UTC.
Position N 01°10' E 103°46'.
Warning: this ship's position is 9 days out of date.

Length 178 m; draft 5.9 m.

Type: Cargo ship. MMSI: 353847000.

Date/timePositionNaut miles runAvg speedWind from/ knotsBaromVisibWave heightAir tempDewpointWater temp
2015-Aug-19 12:22N 01°10' E 103°46'5 2.0
2015-Aug-19 10:06N 01°13' E 103°49'0 0.2
2015-Aug-19 09:30N 01°13' E 103°49'6 6.6
2015-Aug-19 08:33N 01°14' E 103°43'  
2015-Aug-16 02:26N 01°13' E 103°40'7 7.6
2015-Aug-16 01:26N 01°10' E 103°47'9 9.8
2015-Aug-16 00:33N 01°14' E 103°54'6 5.2
2015-Aug-15 23:21N 01°18' E 103°60'0 0.0
2015-Aug-15 21:23N 01°18' E 103°60'0 0.0
2015-Aug-15 20:27N 01°18' E 103°60'0 0.0
2015-Aug-15 19:21N 01°18' E 103°60'0 0.1
2015-Aug-15 17:32N 01°18' E 103°59'0 0.0
2015-Aug-15 14:26N 01°18' E 103°59'0 0.0
2015-Aug-14 06:33N 01°18' E 103°59'  
2015-Aug-11 23:32N 01°16' E 103°58'  
Track history (hours):
 
Tides and Currents Weather Stations Pressure Air Temp Water Temp Dewpoint Dewpoint Depression Visibility Wind Speed Wind Dir Waves Ship Positions

Apellis

Last reported at 2015-Aug-19 12:22 UTC. Time now 2015-Aug-29 00:19 UTC.
Position N 01°10' E 103°46'.
Warning: this ship's position is 9 days out of date.

Length 178 m; draft 5.9 m.

Type: Cargo ship. MMSI: 353847000.

Date/timePositionNaut miles runAvg speedWind from/ knotsBaromVisibWave heightAir tempDewpointWater temp
2015-Aug-19 12:22N 01°10' E 103°46'5 2.0
2015-Aug-19 10:06N 01°13' E 103°49'0 0.2
2015-Aug-19 09:30N 01°13' E 103°49'6 6.6
2015-Aug-19 08:33N 01°14' E 103°43'  
2015-Aug-16 02:26N 01°13' E 103°40'7 7.6
2015-Aug-16 01:26N 01°10' E 103°47'9 9.8
2015-Aug-16 00:33N 01°14' E 103°54'6 5.2
2015-Aug-15 23:21N 01°18' E 103°60'0 0.0
2015-Aug-15 21:23N 01°18' E 103°60'0 0.0
2015-Aug-15 20:27N 01°18' E 103°60'0 0.0
2015-Aug-15 19:21N 01°18' E 103°60'0 0.1
2015-Aug-15 17:32N 01°18' E 103°59'0 0.0
2015-Aug-15 14:26N 01°18' E 103°59'0 0.0
2015-Aug-14 06:33N 01°18' E 103°59'  
2015-Aug-11 23:32N 01°16' E 103°58'  

Dump ship's entire track history